Durango Ski Resort, Colorado Weather observations

Data are for observation ending at time listed.
 Day   Time    Ave.   Ave.  Ave.  Vector   Max.    Total    Solar   Ave.  
  of    of     Air    Rel.  Wind   Wind    Wind   Precip.   Rad.    Soil  
Year   Day     Temp.  Hum.  Speed  Dir.    Gust                     Temp. 
2014   (PST)    F      %     mph   deg.    mph      in.     W/m2     F   
------------------------------------------------------------------------------
 329   10:40   19.6    62   19.9   318     30.0    99999.00   99999    99999.0
 329   10:50   19.5    64   20.2   319     32.1    99999.00   99999    99999.0
 329   11:00   19.9    63   13.0   323     23.1    99999.00   99999    99999.0
 329   11:10   20.4    62   14.7   320     25.7    99999.00   99999    99999.0
 329   11:20   20.3    64   15.8   327     30.0    99999.00   99999    99999.0
 329   11:30   20.0    69   14.9   328     24.9    99999.00   99999    99999.0
 329   11:40   20.2    70   14.6   325     24.9    99999.00   99999    99999.0
 329   11:50   20.4    72   14.2   325     24.0    99999.00   99999    99999.0
 329   12:00   20.4    73   14.0   327     23.6    99999.00   99999    99999.0
 329   12:10   20.8    74   17.6   325     27.8    99999.00   99999    99999.0
 329   12:20   20.9    76   18.1   328     28.3    99999.00   99999    99999.0
 329   12:30   21.5    78   18.1   331     36.4    99999.00   99999    99999.0
 329   12:40   21.6    81   19.6   333     36.4    99999.00   99999    99999.0
 329   12:50   21.8    80   23.0   333     36.8    99999.00   99999    99999.0
 329   13:00   22.0    79   28.6   326     44.0    99999.00   99999    99999.0
 329   13:10   22.0    79   27.4   326     40.6    99999.00   99999    99999.0
 329   13:20   22.1    79   21.1   331     34.7    99999.00   99999    99999.0
 329   13:30   22.3    78   22.6   331     34.7    99999.00   99999    99999.0
 329   13:40   23.0    75   23.6   326     36.4    99999.00   99999    99999.0
 329   13:50   23.4    74   21.6   329     34.7    99999.00   99999    99999.0
 329   14:00   23.4    75   20.6   330     36.4    99999.00   99999    99999.0
 329   14:10   23.7    75   19.5   326     29.5    99999.00   99999    99999.0
 329   14:20   23.8    75   20.5   326     31.7    99999.00   99999    99999.0
 329   14:30   23.5    76   22.7   326     33.4    99999.00   99999    99999.0
 329   14:40   23.5    77   24.2   325     36.4    99999.00   99999    99999.0
 329   14:50   23.6    77   25.1   324     40.2    99999.00   99999    99999.0
 329   15:00   23.4    78   20.8   326     29.1    99999.00   99999    99999.0
 329   15:10   23.0    80   23.6   326     41.1    99999.00   99999    99999.0
 329   15:20   22.8    82   23.2   325     36.0    99999.00   99999    99999.0
 329   15:30   23.0    81   26.4   323     41.1    99999.00   99999    99999.0
 329   15:40   23.1    81   22.6   320     35.1    99999.00   99999    99999.0
 329   15:50   23.1    81   26.0   324     38.5    99999.00   99999    99999.0
 329   16:00   23.1    82   24.5   327     38.1    99999.00   99999    99999.0
 329   16:10   23.1    83   26.5   322     43.2    99999.00   99999    99999.0
 329   16:20   23.2    83   26.1   326     44.5    99999.00   99999    99999.0
 329   16:30   23.2    83   27.1   324     40.2    99999.00   99999    99999.0
 329   16:40   23.4    83   30.3   328     47.0    99999.00   99999    99999.0
 329   16:50   22.7    85   21.9   332     41.5    99999.00   99999    99999.0
 329   17:00   22.8    86   25.1   332     46.2    99999.00   99999    99999.0
 329   17:10   23.0    86   25.5   330     41.1    99999.00   99999    99999.0
 329   17:20   23.0    86   18.8   331     32.1    99999.00   99999    99999.0
 329   17:30   23.1    86   19.0   332     32.5    99999.00   99999    99999.0
 329   17:40   22.9    87   16.5   333     27.0    99999.00   99999    99999.0
 329   17:50   22.7    86   14.7   329     25.3    99999.00   99999    99999.0
 329   18:00   22.6    87   16.5   339     31.7    99999.00   99999    99999.0
 329   18:10   22.8    86   21.8   335     35.1    99999.00   99999    99999.0
 329   18:20   23.2    83   18.6   340     35.5    99999.00   99999    99999.0
 329   18:30   23.3    84   23.3   328     42.3    99999.00   99999    99999.0
 329   18:40   23.3    85   23.2   334     42.8    99999.00   99999    99999.0
 329   18:50   23.4    86   15.6   335     36.8    99999.00   99999    99999.0
 329   19:00   23.4    86   19.8   336     37.2    99999.00   99999    99999.0
 329   19:10   23.5    86   20.7   336     37.2    99999.00   99999    99999.0
 329   19:20   23.4    86   23.1   332     34.2    99999.00   99999    99999.0
 329   19:30   23.4    87   19.5   335     45.8    99999.00   99999    99999.0
 329   19:40   23.5    87   19.9   332     34.7    99999.00   99999    99999.0
 329   19:50   23.3    87   20.5   329     37.7    99999.00   99999    99999.0
 329   20:00   22.9    88   17.9   328     32.5    99999.00   99999    99999.0
 329   20:10   22.7    89   21.2   324     38.5    99999.00   99999    99999.0
 329   20:20   22.7    89   22.9   324     42.8    99999.00   99999    99999.0
 329   20:30   22.5    90   16.5   327     26.6    99999.00   99999    99999.0
 329   20:40   22.4    91   17.6   327     32.1    99999.00   99999    99999.0
 329   20:50   22.4    91   16.2   327     27.0    99999.00   99999    99999.0
 329   21:00   22.2    91   15.3   325     31.2    99999.00   99999    99999.0
 329   21:10   22.2    92   10.8   329     22.3    99999.00   99999    99999.0
 329   21:20   22.2    92   10.3   328     21.4    99999.00   99999    99999.0
 329   21:30   22.6    91   14.0   332     38.1    99999.00   99999    99999.0
 329   21:40   22.6    91   12.3   333     24.0    99999.00   99999    99999.0
 329   21:50   22.7    90   14.9   332     40.6    99999.00   99999    99999.0
 329   22:00   22.9    90   19.8   330     34.2    99999.00   99999    99999.0
 329   22:10   22.9    90   20.9   328     37.2    99999.00   99999    99999.0
 329   22:20   22.8    90   14.0   324     27.0    99999.00   99999    99999.0
 329   22:30   22.7    90   15.9   321     30.4    99999.00   99999    99999.0
 329   22:40   22.9    89   15.4   317     32.5    99999.00   99999    99999.0
 329   22:50   22.9    89   17.1   313     27.4    99999.00   99999    99999.0
 329   23:00   22.9    88   18.9   314     32.1    99999.00   99999    99999.0
 329   23:10   23.0    88   20.8   315     33.8    99999.00   99999    99999.0
 329   23:20   22.9    88   18.6   319     31.7    99999.00   99999    99999.0
 329   23:30   22.8    89   18.1   321     33.4    99999.00   99999    99999.0
 329   23:40   23.0    88   20.6   318     34.7    99999.00   99999    99999.0
 329   23:50   23.0    89   16.5   316     28.3    99999.00   99999    99999.0
 330    0:00   23.1    90   14.1   313     25.3    99999.00   99999    99999.0
 330    0:10   23.0    90   13.7   321     21.0    99999.00   99999    99999.0
 330    0:20   23.3    89   20.0   321     30.0    99999.00   99999    99999.0
 330    0:30   23.4    88   17.3   313     28.3    99999.00   99999    99999.0
 330    0:40   23.4    88   15.8   315     25.3    99999.00   99999    99999.0
 330    0:50   23.3    89   14.9   314     25.7    99999.00   99999    99999.0
 330    1:00   23.3    90   14.9   314     23.1    99999.00   99999    99999.0
 330    1:10   23.6    90   14.0   307     22.3    99999.00   99999    99999.0
 330    1:20   23.7    90   16.0   312     27.8    99999.00   99999    99999.0
 330    1:30   23.7    90   16.8   315     25.7    99999.00   99999    99999.0
 330    1:40   23.8    89   16.4   317     30.0    99999.00   99999    99999.0
 330    1:50   23.6    90   16.6   314     28.3    99999.00   99999    99999.0
 330    2:00   23.6    90   17.7   312     29.1    99999.00   99999    99999.0
 330    2:10   23.6    90   16.6   317     27.4    99999.00   99999    99999.0
 330    2:20   23.7    89   16.2   315     24.0    99999.00   99999    99999.0
 330    2:30   23.7    90   16.5   314     24.0    99999.00   99999    99999.0
 330    2:40   23.6    90   16.0   315     22.3    99999.00   99999    99999.0
 330    2:50   23.6    90   12.9   314     22.7    99999.00   99999    99999.0
 330    3:00   23.7    89   14.3   314     21.0    99999.00   99999    99999.0
 330    3:10   23.7    89   14.3   322     24.4    99999.00   99999    99999.0
 330    3:20   23.9    89   13.7   318     21.9    99999.00   99999    99999.0
 330    3:30   23.9    89   12.3   311     18.9    99999.00   99999    99999.0
 330    3:40   24.0    89   13.9   317     21.9    99999.00   99999    99999.0
 330    3:50   24.2    88   16.7   314     29.1    99999.00   99999    99999.0
 330    4:00   24.1    88   16.7   326     31.2    99999.00   99999    99999.0
 330    4:10   24.2    88   18.2   320     29.1    99999.00   99999    99999.0
 330    4:20   24.3    88   17.4   320     30.8    99999.00   99999    99999.0
 330    4:30   24.4    87   16.4   319     32.1    99999.00   99999    99999.0
 330    4:40   24.4    87   18.9   322     30.4    99999.00   99999    99999.0
 330    4:50   24.3    88   10.2   315     24.9    99999.00   99999    99999.0
 330    5:00   24.2    88    8.5   316     17.2    99999.00   99999    99999.0
 330    5:10   24.4    87   12.2   305     22.7    99999.00   99999    99999.0
 330    5:20   24.4    87   12.5   310     21.9    99999.00   99999    99999.0
 330    5:30   24.2    88   11.6   308     24.9    99999.00   99999    99999.0
 330    5:40   24.1    88    7.9   302     12.5    99999.00   99999    99999.0
 330    5:50   24.2    87    9.3   308     15.9    99999.00   99999    99999.0
 330    6:00   24.2    87    7.1   294     15.9    99999.00   99999    99999.0
 330    6:10   24.3    86    7.1   290     14.2    99999.00   99999    99999.0
 330    6:20   24.4    85    4.6   283     13.3    99999.00   99999    99999.0
 330    6:30   24.9    84    3.6   272     14.2    99999.00   99999    99999.0
 330    6:40   25.9    82    3.9   215      6.9    99999.00   99999    99999.0
 330    6:50   26.5    80    3.8   202      7.4    99999.00   99999    99999.0
 330    7:00   27.2    78    2.7   188      6.5    99999.00   99999    99999.0
 330    7:10   27.4    77    1.2   231      6.1    99999.00   99999    99999.0
 330    7:20   28.3    74    1.3   218      4.8    99999.00   99999    99999.0
 330    7:30   28.0    75    2.2   277      7.8    99999.00   99999    99999.0
 330    7:40   28.9    72    1.0   250      6.1    99999.00   99999    99999.0
 330    7:50   27.7    74    6.9   291     12.5    99999.00   99999    99999.0
 330    8:00   27.1    76    9.4   290     21.9    99999.00   99999    99999.0
 330    8:10   27.1    75   10.9   298     19.3    99999.00   99999    99999.0
 330    8:20   27.5    75   10.0   303     18.5    99999.00   99999    99999.0
 330    8:30   27.8    73   10.2   305     21.0    99999.00   99999    99999.0
 330    8:40   28.0    71   14.4   311     25.7    99999.00   99999    99999.0
 330    8:50   28.1    71   15.3   314     27.0    99999.00   99999    99999.0
 330    9:00   28.6    69   12.2   313     26.6    99999.00   99999    99999.0
 330    9:10   29.0    68   11.9   308     26.1    99999.00   99999    99999.0
 330    9:20   29.3    67   11.1   314     25.3    99999.00   99999    99999.0
 330    9:30   29.8    66   12.1   308     21.4    99999.00   99999    99999.0
 330    9:40   30.6    63   11.4   299     20.6    99999.00   99999    99999.0
 330    9:50   31.2    62    9.3   305     16.8    99999.00   99999    99999.0
 330   10:00   31.6    60   10.3   307     18.5    99999.00   99999    99999.0
 330   10:10   31.6    59   17.3   320     29.5    99999.00   99999    99999.0
 330   10:20   31.8    58   16.8   325     30.8    99999.00   99999    99999.0
 330   10:30   32.1    58   13.7   328     26.6    99999.00   99999    99999.0

Return to Durango Ski Resort, Colorado graphs page.


Western Regional Climate Center,wrcc@dri.edu